ELY006 KLAX-LLBG
Flight info
| Callsign | ELY006 |
|---|---|
| Flight time | N/A |
| Altitude | 33000 |
| Route | OSHNN1 BEALE DCT EEVUN DCT BCE DCT KD57Q DCT KD69S DCT KD81U DCT KU03W DCT KP15Y/N0499F350 DCT SEGAP DCT 57N090W 62N080W 6530N07000W/M085F350 DCT CANEL DCT 70N050W/M085F370 7030N04000W 7030N03000W 70N020W 69N010W 66N000E/N0485F370 DCT GIPOD DCT ESEBA DCT PENOR N133 DOMAG/N0478F390 N133 KARTI DCT POLON DCT NUBLI DCT ORTEB DCT LENOV DCT BADOR DCT TIDGA DCT VAMON DCT APROB DCT ADORU UG80 EKI UM19 IVGUS UY229 YAYLA UL854 KULAR UT39 TOMBI DCT IDAKU L35 PIKOG L609 ZUKKO |
| Aircraft | B789/H-SACDE1E2E3GHIJ1J3J4J5LM1OP2RVWXY/LB2D1 |
Departure
| Time | 2026-04-23 21:20 |
|---|---|
| Airport | Los Angeles International Airport (KLAX) |
Arrival
| Time | N/A |
|---|---|
| Airport | Ben Gurion International Airport (LLBG) |
| Time | Latitude | Longitude | Altitude | Speed | Heading |
|---|---|---|---|---|---|
| 2026-04-23 20:37 | 33.94371 | -118.41432 | 100 ft | 0 kts | 263° |
| 2026-04-23 21:05 | 33.94373 | -118.41417 | 100 ft | 2 kts | 263° |
| 2026-04-23 21:05 | 33.94375 | -118.41398 | 97 ft | 2 kts | 263° |
| 2026-04-23 21:06 | 33.94377 | -118.41378 | 98 ft | 2 kts | 263° |
| 2026-04-23 21:06 | 33.94379 | -118.41358 | 99 ft | 2 kts | 266° |
| 2026-04-23 21:06 | 33.94384 | -118.41339 | 98 ft | 3 kts | 224° |
| 2026-04-23 21:06 | 33.94396 | -118.41336 | 97 ft | 0 kts | 170° |
| 2026-04-23 21:09 | 33.94392 | -118.41336 | 100 ft | 1 kts | 175° |
| 2026-04-23 21:09 | 33.94384 | -118.41335 | 103 ft | 2 kts | 175° |
| 2026-04-23 21:09 | 33.94360 | -118.41333 | 101 ft | 6 kts | 175° |
| 2026-04-23 21:09 | 33.94307 | -118.41327 | 100 ft | 9 kts | 175° |
| 2026-04-23 21:10 | 33.94245 | -118.41317 | 101 ft | 10 kts | 172° |
| 2026-04-23 21:10 | 33.94171 | -118.41307 | 101 ft | 11 kts | 173° |
| 2026-04-23 21:10 | 33.94091 | -118.41295 | 101 ft | 12 kts | 173° |
| 2026-04-23 21:10 | 33.94011 | -118.41283 | 103 ft | 11 kts | 173° |
| 2026-04-23 21:11 | 33.93935 | -118.41272 | 101 ft | 11 kts | 173° |
| 2026-04-23 21:11 | 33.93862 | -118.41261 | 103 ft | 11 kts | 172° |
| 2026-04-23 21:11 | 33.93790 | -118.41249 | 105 ft | 9 kts | 165° |
| 2026-04-23 21:11 | 33.93761 | -118.41209 | 107 ft | 6 kts | 107° |
| 2026-04-23 21:12 | 33.93762 | -118.41141 | 107 ft | 11 kts | 84° |
| 2026-04-23 21:12 | 33.93773 | -118.41022 | 107 ft | 18 kts | 82° |
| 2026-04-23 21:12 | 33.93788 | -118.40872 | 107 ft | 17 kts | 83° |
| 2026-04-23 21:12 | 33.93803 | -118.40736 | 107 ft | 16 kts | 83° |
| 2026-04-23 21:13 | 33.93816 | -118.40612 | 107 ft | 14 kts | 83° |
| 2026-04-23 21:13 | 33.93827 | -118.40498 | 108 ft | 13 kts | 83° |
| 2026-04-23 21:13 | 33.93837 | -118.40397 | 109 ft | 12 kts | 83° |
| 2026-04-23 21:13 | 33.93847 | -118.40301 | 109 ft | 12 kts | 83° |
| 2026-04-23 21:14 | 33.93854 | -118.40233 | 109 ft | 13 kts | 83° |
| 2026-04-23 21:14 | 33.93866 | -118.40119 | 109 ft | 14 kts | 83° |
| 2026-04-23 21:14 | 33.93879 | -118.39994 | 110 ft | 16 kts | 83° |
| 2026-04-23 21:14 | 33.93896 | -118.39807 | 109 ft | 18 kts | 82° |
| 2026-04-23 21:15 | 33.93906 | -118.39706 | 108 ft | 18 kts | 81° |
| 2026-04-23 21:15 | 33.93930 | -118.39500 | 108 ft | 19 kts | 83° |
| 2026-04-23 21:15 | 33.93940 | -118.39395 | 107 ft | 19 kts | 83° |
| 2026-04-23 21:15 | 33.93956 | -118.39241 | 106 ft | 19 kts | 83° |
| 2026-04-23 21:16 | 33.93972 | -118.39088 | 107 ft | 18 kts | 83° |
| 2026-04-23 21:16 | 33.93987 | -118.38938 | 107 ft | 18 kts | 83° |
| 2026-04-23 21:16 | 33.94001 | -118.38795 | 107 ft | 16 kts | 82° |
| 2026-04-23 21:16 | 33.94015 | -118.38666 | 108 ft | 15 kts | 83° |
| 2026-04-23 21:17 | 33.94027 | -118.38547 | 108 ft | 14 kts | 83° |
| 2026-04-23 21:17 | 33.94038 | -118.38437 | 108 ft | 13 kts | 83° |
| 2026-04-23 21:17 | 33.94049 | -118.38323 | 108 ft | 14 kts | 84° |
| 2026-04-23 21:17 | 33.94062 | -118.38204 | 108 ft | 15 kts | 83° |
| 2026-04-23 21:18 | 33.94075 | -118.38083 | 108 ft | 14 kts | 83° |
| 2026-04-23 21:18 | 33.94039 | -118.38005 | 108 ft | 9 kts | 161° |
| 2026-04-23 21:18 | 33.93992 | -118.38014 | 114 ft | 5 kts | 232° |
| 2026-04-23 21:18 | 33.93979 | -118.38067 | 113 ft | 8 kts | 260° |
| 2026-04-23 21:19 | 33.93962 | -118.38250 | 112 ft | 48 kts | 263° |
| 2026-04-23 21:19 | 33.93896 | -118.38892 | 108 ft | 106 kts | 263° |
| 2026-04-23 21:19 | 33.93782 | -118.39992 | 116 ft | 157 kts | 263° |
| 2026-04-23 21:19 | 33.93636 | -118.41475 | 233 ft | 191 kts | 258° |
| 2026-04-23 21:20 | 33.93474 | -118.43018 | 1236 ft | 182 kts | 258° |
| 2026-04-23 21:20 | 33.93293 | -118.44618 | 1922 ft | 204 kts | 263° |
| 2026-04-23 21:20 | 33.92924 | -118.46277 | 2442 ft | 212 kts | 235° |
| 2026-04-23 21:20 | 33.91908 | -118.47579 | 3045 ft | 216 kts | 229° |
| 2026-04-23 21:21 | 33.90918 | -118.48998 | 3412 ft | 234 kts | 219° |
| 2026-04-23 21:21 | 33.89324 | -118.49650 | 3574 ft | 257 kts | 180° |
| 2026-04-23 21:21 | 33.87516 | -118.49601 | 4060 ft | 269 kts | 183° |
| 2026-04-23 21:21 | 33.85654 | -118.49929 | 4724 ft | 279 kts | 188° |
| 2026-04-23 21:22 | 33.83698 | -118.50315 | 5320 ft | 288 kts | 186° |
| 2026-04-23 21:22 | 33.81667 | -118.50583 | 6253 ft | 291 kts | 185° |
| 2026-04-23 21:22 | 33.79679 | -118.50801 | 7031 ft | 295 kts | 186° |
| 2026-04-23 21:22 | 33.77616 | -118.51058 | 7888 ft | 297 kts | 188° |
| 2026-04-23 21:23 | 33.75545 | -118.51336 | 8744 ft | 299 kts | 189° |
| 2026-04-23 21:23 | 33.73482 | -118.51595 | 9555 ft | 302 kts | 186° |
| 2026-04-23 21:23 | 33.71382 | -118.51169 | 10278 ft | 311 kts | 160° |
| 2026-04-23 21:23 | 33.69515 | -118.49773 | 10687 ft | 333 kts | 134° |
| 2026-04-23 21:24 | 33.68259 | -118.47321 | 10879 ft | 359 kts | 111° |
| 2026-04-23 21:24 | 33.67394 | -118.44417 | 11070 ft | 380 kts | 108° |
| 2026-04-23 21:24 | 33.66579 | -118.41387 | 11841 ft | 383 kts | 109° |
| 2026-04-23 21:24 | 33.65680 | -118.38320 | 12468 ft | 390 kts | 111° |
| 2026-04-23 21:25 | 33.64751 | -118.35237 | 13145 ft | 396 kts | 106° |
| 2026-04-23 21:25 | 33.64435 | -118.31967 | 13785 ft | 401 kts | 88° |
| 2026-04-23 21:25 | 33.64459 | -118.28598 | 14324 ft | 407 kts | 89° |
| 2026-04-23 21:25 | 33.64467 | -118.25179 | 14973 ft | 412 kts | 89° |
| 2026-04-23 21:26 | 33.64645 | -118.21725 | 15551 ft | 414 kts | 74° |
| 2026-04-23 21:26 | 33.65608 | -118.18479 | 16156 ft | 413 kts | 57° |
| 2026-04-23 21:26 | 33.67269 | -118.15684 | 16746 ft | 410 kts | 41° |
| 2026-04-23 21:26 | 33.69407 | -118.13536 | 17278 ft | 409 kts | 32° |
| 2026-04-23 21:27 | 33.71716 | -118.11450 | 17843 ft | 413 kts | 32° |
| 2026-04-23 21:27 | 33.74023 | -118.09408 | 18416 ft | 417 kts | 31° |
| 2026-04-23 21:27 | 33.76357 | -118.07327 | 18953 ft | 420 kts | 32° |
| 2026-04-23 21:27 | 33.78720 | -118.05195 | 19482 ft | 424 kts | 32° |
| 2026-04-23 21:28 | 33.81098 | -118.03051 | 20003 ft | 427 kts | 32° |
| 2026-04-23 21:28 | 33.83467 | -118.00926 | 20529 ft | 430 kts | 32° |
| 2026-04-23 21:28 | 33.85881 | -117.98760 | 21048 ft | 433 kts | 32° |
| 2026-04-23 21:28 | 33.88304 | -117.96577 | 21527 ft | 437 kts | 32° |
| 2026-04-23 21:29 | 33.90752 | -117.94368 | 22030 ft | 440 kts | 32° |
| 2026-04-23 21:29 | 33.93187 | -117.92161 | 22501 ft | 443 kts | 33° |
| 2026-04-23 21:29 | 33.95646 | -117.89901 | 22970 ft | 446 kts | 33° |
| 2026-04-23 21:29 | 33.98133 | -117.87617 | 23459 ft | 449 kts | 33° |
| 2026-04-23 21:30 | 34.00636 | -117.85334 | 23872 ft | 452 kts | 32° |
| 2026-04-23 21:30 | 34.03153 | -117.83036 | 24258 ft | 455 kts | 33° |
| 2026-04-23 21:30 | 34.05669 | -117.80728 | 24608 ft | 458 kts | 33° |
| 2026-04-23 21:30 | 34.08180 | -117.78395 | 24980 ft | 461 kts | 37° |
| 2026-04-23 21:31 | 34.10420 | -117.75567 | 25328 ft | 469 kts | 47° |
| 2026-04-23 21:31 | 34.12496 | -117.72503 | 25622 ft | 472 kts | 47° |
| 2026-04-23 21:31 | 34.14581 | -117.69388 | 25986 ft | 475 kts | 47° |
| 2026-04-23 21:31 | 34.16667 | -117.66278 | 26321 ft | 478 kts | 47° |
| 2026-04-23 21:32 | 34.18780 | -117.63152 | 26673 ft | 480 kts | 47° |
| 2026-04-23 21:32 | 34.20878 | -117.60043 | 26986 ft | 483 kts | 47° |
| 2026-04-23 21:32 | 34.23004 | -117.56874 | 27349 ft | 485 kts | 47° |
| 2026-04-23 21:32 | 34.25114 | -117.53726 | 27655 ft | 487 kts | 47° |
| 2026-04-23 21:33 | 34.27258 | -117.50532 | 27954 ft | 490 kts | 47° |
| 2026-04-23 21:33 | 34.29420 | -117.47313 | 28277 ft | 492 kts | 47° |
| 2026-04-23 21:33 | 34.31579 | -117.44087 | 28592 ft | 495 kts | 47° |
| 2026-04-23 21:33 | 34.33756 | -117.40831 | 28904 ft | 498 kts | 47° |
| 2026-04-23 21:34 | 34.35919 | -117.37595 | 29213 ft | 500 kts | 47° |
| 2026-04-23 21:34 | 34.38137 | -117.34276 | 29505 ft | 502 kts | 47° |
| 2026-04-23 21:34 | 34.40310 | -117.31020 | 29778 ft | 504 kts | 47° |
| 2026-04-23 21:34 | 34.42518 | -117.27707 | 30050 ft | 507 kts | 47° |
| 2026-04-23 21:35 | 34.44753 | -117.24351 | 30282 ft | 509 kts | 47° |
| 2026-04-23 21:35 | 34.46972 | -117.21017 | 30516 ft | 511 kts | 47° |
| 2026-04-23 21:35 | 34.49202 | -117.17662 | 30742 ft | 513 kts | 47° |
| 2026-04-23 21:35 | 34.51457 | -117.14267 | 30980 ft | 515 kts | 47° |
| 2026-04-23 21:36 | 34.56023 | -117.07558 | 31370 ft | 517 kts | 46° |
| 2026-04-23 21:36 | 34.58312 | -117.04205 | 31577 ft | 520 kts | 47° |
| 2026-04-23 21:36 | 34.60602 | -117.00780 | 31757 ft | 521 kts | 47° |
| 2026-04-23 21:37 | 34.62911 | -116.97414 | 31961 ft | 523 kts | 46° |
| 2026-04-23 21:37 | 34.65315 | -116.93963 | 32169 ft | 524 kts | 46° |
| 2026-04-23 21:37 | 34.67633 | -116.90585 | 32367 ft | 526 kts | 46° |
| 2026-04-23 21:37 | 34.69952 | -116.87159 | 32554 ft | 528 kts | 46° |
| 2026-04-23 21:38 | 34.72303 | -116.83709 | 32760 ft | 530 kts | 46° |
| 2026-04-23 21:38 | 34.74646 | -116.80297 | 32937 ft | 531 kts | 46° |
| 2026-04-23 21:38 | 34.77017 | -116.76830 | 33040 ft | 535 kts | 46° |
| 2026-04-23 21:39 | 34.81787 | -116.69804 | 33034 ft | 534 kts | 46° |
| 2026-04-23 21:39 | 34.86546 | -116.62963 | 33038 ft | 529 kts | 42° |
| 2026-04-23 21:40 | 34.91550 | -116.56291 | 33026 ft | 532 kts | 44° |
| 2026-04-23 21:40 | 34.96523 | -116.49629 | 33015 ft | 532 kts | 43° |
| 2026-04-23 21:41 | 35.01522 | -116.42942 | 33004 ft | 533 kts | 44° |
| 2026-04-23 21:41 | 35.06508 | -116.36237 | 33005 ft | 533 kts | 43° |
| 2026-04-23 21:42 | 35.11507 | -116.29520 | 33009 ft | 534 kts | 44° |
| 2026-04-23 21:42 | 35.16495 | -116.22789 | 33004 ft | 534 kts | 44° |
| 2026-04-23 21:43 | 35.21487 | -116.16051 | 33002 ft | 535 kts | 44° |
| 2026-04-23 21:43 | 35.26477 | -116.09294 | 33009 ft | 536 kts | 43° |
| 2026-04-23 21:44 | 35.31477 | -116.02517 | 33015 ft | 537 kts | 44° |
| 2026-04-23 21:44 | 35.36477 | -115.95720 | 33019 ft | 537 kts | 44° |
| 2026-04-23 21:45 | 35.41442 | -115.88963 | 33020 ft | 537 kts | 43° |
| 2026-04-23 21:45 | 35.46435 | -115.82151 | 33030 ft | 537 kts | 43° |
| 2026-04-23 21:46 | 35.51435 | -115.75316 | 33034 ft | 538 kts | 43° |
| 2026-04-23 21:46 | 35.56406 | -115.68507 | 33032 ft | 539 kts | 43° |
| 2026-04-23 21:47 | 35.61441 | -115.61595 | 33039 ft | 539 kts | 43° |
| 2026-04-23 21:47 | 35.66441 | -115.54721 | 33035 ft | 539 kts | 43° |
| 2026-04-23 21:48 | 35.71407 | -115.47876 | 33043 ft | 539 kts | 43° |
| 2026-04-23 21:48 | 35.76390 | -115.40992 | 33047 ft | 537 kts | 43° |
| 2026-04-23 21:49 | 35.81291 | -115.34204 | 33032 ft | 523 kts | 43° |
| 2026-04-23 21:49 | 35.83686 | -115.30880 | 33029 ft | 511 kts | 43° |
| 2026-04-23 21:49 | 35.86032 | -115.27627 | 33034 ft | 503 kts | 43° |
| 2026-04-23 21:50 | 35.90690 | -115.21170 | 33049 ft | 508 kts | 43° |
| 2026-04-23 21:50 | 35.95391 | -115.14614 | 33042 ft | 512 kts | 43° |
| 2026-04-23 21:51 | 36.00114 | -115.08031 | 33051 ft | 512 kts | 43° |
| 2026-04-23 21:51 | 36.04825 | -115.01445 | 33010 ft | 512 kts | 43° |
| 2026-04-23 21:52 | 36.09543 | -114.94839 | 32958 ft | 512 kts | 43° |
| 2026-04-23 21:52 | 36.14259 | -114.88221 | 32959 ft | 512 kts | 43° |
| 2026-04-23 21:53 | 36.19008 | -114.81640 | 32978 ft | 512 kts | 38° |
| 2026-04-23 21:53 | 36.24069 | -114.75252 | 32962 ft | 526 kts | 40° |
| 2026-04-23 21:54 | 36.29208 | -114.68707 | 32948 ft | 538 kts | 40° |
| 2026-04-23 21:54 | 36.34478 | -114.62016 | 32926 ft | 544 kts | 40° |
| 2026-04-23 21:55 | 36.39756 | -114.55274 | 32925 ft | 544 kts | 40° |
| 2026-04-23 21:55 | 36.45025 | -114.48553 | 32926 ft | 543 kts | 40° |
| 2026-04-23 21:56 | 36.50286 | -114.41812 | 32923 ft | 544 kts | 40° |
| 2026-04-23 21:56 | 36.55523 | -114.35097 | 32928 ft | 544 kts | 40° |
| 2026-04-23 21:57 | 36.60787 | -114.28328 | 32933 ft | 545 kts | 40° |
| 2026-04-23 21:57 | 36.65172 | -114.22682 | 32941 ft | 545 kts | 40° |
| 2026-04-23 21:58 | 36.70462 | -114.15854 | 32939 ft | 546 kts | 40° |
| 2026-04-23 21:58 | 36.75740 | -114.09031 | 32941 ft | 546 kts | 40° |
| 2026-04-23 21:59 | 36.81005 | -114.02206 | 32935 ft | 547 kts | 40° |
| 2026-04-23 21:59 | 36.86294 | -113.95339 | 32943 ft | 548 kts | 40° |
| 2026-04-23 22:00 | 36.94158 | -113.85098 | 32967 ft | 548 kts | 39° |
| 2026-04-23 22:00 | 36.99474 | -113.78157 | 32971 ft | 548 kts | 39° |
| 2026-04-23 22:01 | 37.04642 | -113.71133 | 32993 ft | 554 kts | 49° |
| 2026-04-23 22:01 | 37.08698 | -113.62821 | 32978 ft | 562 kts | 55° |
| 2026-04-23 22:02 | 37.12581 | -113.54414 | 32985 ft | 561 kts | 55° |
| 2026-04-23 22:02 | 37.16507 | -113.45942 | 32987 ft | 562 kts | 55° |
| 2026-04-23 22:03 | 37.20430 | -113.37421 | 32966 ft | 563 kts | 55° |
| 2026-04-23 22:03 | 37.24349 | -113.28906 | 32959 ft | 564 kts | 55° |
| 2026-04-23 22:04 | 37.28267 | -113.20362 | 32944 ft | 565 kts | 55° |
| 2026-04-23 22:04 | 37.32180 | -113.11810 | 32948 ft | 565 kts | 55° |
| 2026-04-23 22:05 | 37.36108 | -113.03203 | 32950 ft | 567 kts | 55° |
| 2026-04-23 22:05 | 37.40026 | -112.94591 | 32951 ft | 567 kts | 55° |
| 2026-04-23 22:06 | 37.43919 | -112.86018 | 32952 ft | 569 kts | 55° |